Terminal Aerodrome Forecast
Issued by NWS Wakefield, VA

Home | Current Version | Previous Version | Text Only | Print | Product List | Glossary On
Versions: 1 2 3 4 5 6 7 8 9 10 11 12 13 14 15 16 17 18 19 20 21 22 23 24 25 26
000
FTUS41 KAKQ 192325
TAFRIC
TAF
KRIC 192325Z 2000/2024 17005KT 3SM BR OVC005
     FM200200 19005KT 1SM -DZ BR OVC007
     FM200600 20005KT 1/2SM FG VV003
     FM201200 20005KT 2SM BR OVC007
     FM201500 21009KT P6SM BKN012
     FM201900 21010KT P6SM BKN015
     FM202100 21010KT P6SM BKN035=

USA.gov is the U.S. government's official web portal to all federal, state and local government web resources and services.